sensor_id;sensor_type;location;lat;lon;timestamp;P1;durP1;ratioP1;P2;durP2;ratioP2
9459;SDS011;4768;42.664;23.240;2022-09-27T00:01:18;0.77;;;0.77;;
9459;SDS011;4768;42.664;23.240;2022-09-27T00:03:44;1.07;;;0.57;;
9459;SDS011;4768;42.664;23.240;2022-09-27T00:06:13;1.33;;;1.03;;
9459;SDS011;4768;42.664;23.240;2022-09-27T00:08:41;0.73;;;0.50;;
9459;SDS011;4768;42.664;23.240;2022-09-27T00:11:10;0.67;;;0.60;;
9459;SDS011;4768;42.664;23.240;2022-09-27T00:13:41;0.30;;;0.30;;
9459;SDS011;4768;42.664;23.240;2022-09-27T00:16:08;0.30;;;0.30;;
9459;SDS011;4768;42.664;23.240;2022-09-27T00:18:35;1.90;;;0.50;;
9459;SDS011;4768;42.664;23.240;2022-09-27T00:21:06;0.10;;;0.10;;
9459;SDS011;4768;42.664;23.240;2022-09-27T00:23:35;1.93;;;0.50;;
9459;SDS011;4768;42.664;23.240;2022-09-27T00:26:03;0.83;;;0.67;;
9459;SDS011;4768;42.664;23.240;2022-09-27T00:28:30;1.00;;;0.50;;
9459;SDS011;4768;42.664;23.240;2022-09-27T00:47:16;0.23;;;0.20;;
9459;SDS011;4768;42.664;23.240;2022-09-27T00:49:50;0.33;;;0.33;;
9459;SDS011;4768;42.664;23.240;2022-09-27T00:52:22;0.47;;;0.40;;
9459;SDS011;4768;42.664;23.240;2022-09-27T00:54:53;0.20;;;0.20;;
9459;SDS011;4768;42.664;23.240;2022-09-27T00:57:25;0.43;;;0.43;;
9459;SDS011;4768;42.664;23.240;2022-09-27T00:59:52;0.37;;;0.17;;
9459;SDS011;4768;42.664;23.240;2022-09-27T01:02:25;4.27;;;0.50;;
9459;SDS011;4768;42.664;23.240;2022-09-27T01:04:52;0.23;;;0.10;;
9459;SDS011;4768;42.664;23.240;2022-09-27T01:07:20;0.40;;;0.40;;
9459;SDS011;4768;42.664;23.240;2022-09-27T01:09:47;0.40;;;0.40;;
9459;SDS011;4768;42.664;23.240;2022-09-27T01:12:16;0.33;;;0.27;;
9459;SDS011;4768;42.664;23.240;2022-09-27T01:14:55;0.10;;;0.10;;
9459;SDS011;4768;42.664;23.240;2022-09-27T01:17:38;0.23;;;0.17;;
9459;SDS011;4768;42.664;23.240;2022-09-27T01:23:14;0.00;;;0.00;;
9459;SDS011;4768;42.664;23.240;2022-09-27T01:25:58;0.83;;;0.50;;
9459;SDS011;4768;42.664;23.240;2022-09-27T01:28:41;0.57;;;0.57;;
9459;SDS011;4768;42.664;23.240;2022-09-27T01:31:18;0.00;;;0.00;;
9459;SDS011;4768;42.664;23.240;2022-09-27T01:33:55;0.03;;;0.03;;
9459;SDS011;4768;42.664;23.240;2022-09-27T01:36:29;0.10;;;0.10;;
9459;SDS011;4768;42.664;23.240;2022-09-27T01:39:14;0.10;;;0.10;;
9459;SDS011;4768;42.664;23.240;2022-09-27T01:41:52;0.30;;;0.30;;
9459;SDS011;4768;42.664;23.240;2022-09-27T01:44:27;1.17;;;0.30;;
9459;SDS011;4768;42.664;23.240;2022-09-27T01:47:00;0.20;;;0.20;;
9459;SDS011;4768;42.664;23.240;2022-09-27T01:49:31;4.57;;;0.40;;
9459;SDS011;4768;42.664;23.240;2022-09-27T01:52:03;0.10;;;0.10;;
9459;SDS011;4768;42.664;23.240;2022-09-27T01:54:34;0.00;;;0.00;;
9459;SDS011;4768;42.664;23.240;2022-09-27T01:57:05;0.00;;;0.00;;
9459;SDS011;4768;42.664;23.240;2022-09-27T01:59:36;0.37;;;0.37;;
9459;SDS011;4768;42.664;23.240;2022-09-27T02:02:08;1.40;;;0.63;;
9459;SDS011;4768;42.664;23.240;2022-09-27T02:04:36;0.27;;;0.27;;
9459;SDS011;4768;42.664;23.240;2022-09-27T02:07:07;0.63;;;0.30;;
9459;SDS011;4768;42.664;23.240;2022-09-27T02:09:38;0.40;;;0.40;;
9459;SDS011;4768;42.664;23.240;2022-09-27T02:12:10;0.10;;;0.10;;
9459;SDS011;4768;42.664;23.240;2022-09-27T02:14:43;0.00;;;0.00;;
9459;SDS011;4768;42.664;23.240;2022-09-27T02:17:15;0.10;;;0.10;;
9459;SDS011;4768;42.664;23.240;2022-09-27T02:19:53;0.30;;;0.20;;
9459;SDS011;4768;42.664;23.240;2022-09-27T02:22:28;0.20;;;0.20;;
9459;SDS011;4768;42.664;23.240;2022-09-27T02:24:59;0.43;;;0.30;;
9459;SDS011;4768;42.664;23.240;2022-09-27T02:27:33;0.10;;;0.10;;
9459;SDS011;4768;42.664;23.240;2022-09-27T02:30:04;0.43;;;0.43;;
9459;SDS011;4768;42.664;23.240;2022-09-27T02:32:34;0.77;;;0.40;;
9459;SDS011;4768;42.664;23.240;2022-09-27T02:35:03;0.30;;;0.30;;
9459;SDS011;4768;42.664;23.240;2022-09-27T02:37:34;0.20;;;0.20;;
9459;SDS011;4768;42.664;23.240;2022-09-27T02:40:01;0.43;;;0.43;;
9459;SDS011;4768;42.664;23.240;2022-09-27T02:42:29;0.40;;;0.40;;
9459;SDS011;4768;42.664;23.240;2022-09-27T02:44:57;1.03;;;0.60;;
9459;SDS011;4768;42.664;23.240;2022-09-27T02:47:28;0.40;;;0.33;;
9459;SDS011;4768;42.664;23.240;2022-09-27T02:50:14;0.20;;;0.20;;
9459;SDS011;4768;42.664;23.240;2022-09-27T02:52:55;0.53;;;0.53;;
9459;SDS011;4768;42.664;23.240;2022-09-27T02:55:34;0.47;;;0.47;;
9459;SDS011;4768;42.664;23.240;2022-09-27T02:58:12;0.10;;;0.10;;
9459;SDS011;4768;42.664;23.240;2022-09-27T03:00:50;0.23;;;0.20;;
9459;SDS011;4768;42.664;23.240;2022-09-27T03:03:25;0.30;;;0.30;;
9459;SDS011;4768;42.664;23.240;2022-09-27T03:06:00;0.10;;;0.10;;
9459;SDS011;4768;42.664;23.240;2022-09-27T03:08:29;0.50;;;0.50;;
9459;SDS011;4768;42.664;23.240;2022-09-27T03:10:56;0.07;;;0.00;;
9459;SDS011;4768;42.664;23.240;2022-09-27T03:13:23;0.00;;;0.00;;
9459;SDS011;4768;42.664;23.240;2022-09-27T03:15:49;0.53;;;0.30;;
9459;SDS011;4768;42.664;23.240;2022-09-27T03:18:16;0.50;;;0.50;;
9459;SDS011;4768;42.664;23.240;2022-09-27T03:20:44;1.50;;;0.83;;
9459;SDS011;4768;42.664;23.240;2022-09-27T03:23:11;0.47;;;0.40;;
9459;SDS011;4768;42.664;23.240;2022-09-27T03:25:38;0.00;;;0.00;;
9459;SDS011;4768;42.664;23.240;2022-09-27T03:28:05;0.20;;;0.20;;
9459;SDS011;4768;42.664;23.240;2022-09-27T03:30:33;0.17;;;0.17;;
9459;SDS011;4768;42.664;23.240;2022-09-27T03:33:01;0.20;;;0.20;;
9459;SDS011;4768;42.664;23.240;2022-09-27T03:35:28;0.23;;;0.23;;
9459;SDS011;4768;42.664;23.240;2022-09-27T03:37:56;0.13;;;0.13;;
9459;SDS011;4768;42.664;23.240;2022-09-27T03:40:23;0.27;;;0.10;;
9459;SDS011;4768;42.664;23.240;2022-09-27T03:42:50;0.40;;;0.40;;
9459;SDS011;4768;42.664;23.240;2022-09-27T03:45:17;2.63;;;0.53;;
9459;SDS011;4768;42.664;23.240;2022-09-27T03:47:43;0.10;;;0.10;;
9459;SDS011;4768;42.664;23.240;2022-09-27T03:50:11;0.73;;;0.73;;
9459;SDS011;4768;42.664;23.240;2022-09-27T03:52:38;0.10;;;0.10;;
9459;SDS011;4768;42.664;23.240;2022-09-27T03:55:06;0.20;;;0.20;;
9459;SDS011;4768;42.664;23.240;2022-09-27T03:57:33;0.10;;;0.10;;
9459;SDS011;4768;42.664;23.240;2022-09-27T04:00:00;1.33;;;0.63;;
9459;SDS011;4768;42.664;23.240;2022-09-27T04:02:27;0.60;;;0.60;;
9459;SDS011;4768;42.664;23.240;2022-09-27T04:04:54;0.13;;;0.13;;
9459;SDS011;4768;42.664;23.240;2022-09-27T04:07:21;0.77;;;0.47;;
9459;SDS011;4768;42.664;23.240;2022-09-27T04:09:48;0.40;;;0.30;;
9459;SDS011;4768;42.664;23.240;2022-09-27T04:12:16;0.30;;;0.30;;
9459;SDS011;4768;42.664;23.240;2022-09-27T04:14:43;0.10;;;0.10;;
9459;SDS011;4768;42.664;23.240;2022-09-27T04:17:10;0.30;;;0.10;;
9459;SDS011;4768;42.664;23.240;2022-09-27T04:19:36;0.20;;;0.20;;
9459;SDS011;4768;42.664;23.240;2022-09-27T04:22:04;0.30;;;0.30;;
9459;SDS011;4768;42.664;23.240;2022-09-27T04:24:30;0.80;;;0.80;;
9459;SDS011;4768;42.664;23.240;2022-09-27T04:26:58;0.20;;;0.20;;
9459;SDS011;4768;42.664;23.240;2022-09-27T04:29:26;0.30;;;0.20;;
9459;SDS011;4768;42.664;23.240;2022-09-27T04:31:53;0.10;;;0.10;;
9459;SDS011;4768;42.664;23.240;2022-09-27T04:34:20;0.27;;;0.27;;
9459;SDS011;4768;42.664;23.240;2022-09-27T04:37:06;0.20;;;0.20;;
9459;SDS011;4768;42.664;23.240;2022-09-27T04:39:32;0.63;;;0.57;;
9459;SDS011;4768;42.664;23.240;2022-09-27T04:42:01;0.30;;;0.30;;
9459;SDS011;4768;42.664;23.240;2022-09-27T04:44:29;0.63;;;0.40;;
9459;SDS011;4768;42.664;23.240;2022-09-27T04:46:56;0.63;;;0.63;;
9459;SDS011;4768;42.664;23.240;2022-09-27T04:49:22;1.97;;;0.50;;
9459;SDS011;4768;42.664;23.240;2022-09-27T04:51:49;1.07;;;0.77;;
9459;SDS011;4768;42.664;23.240;2022-09-27T04:54:16;0.20;;;0.20;;
9459;SDS011;4768;42.664;23.240;2022-09-27T04:56:43;0.30;;;0.30;;
9459;SDS011;4768;42.664;23.240;2022-09-27T04:59:09;0.53;;;0.50;;
9459;SDS011;4768;42.664;23.240;2022-09-27T05:01:38;1.17;;;0.50;;
9459;SDS011;4768;42.664;23.240;2022-09-27T05:04:04;0.33;;;0.33;;
9459;SDS011;4768;42.664;23.240;2022-09-27T05:06:31;1.03;;;0.50;;
9459;SDS011;4768;42.664;23.240;2022-09-27T05:08:58;0.10;;;0.10;;
9459;SDS011;4768;42.664;23.240;2022-09-27T05:11:25;3.63;;;0.40;;
9459;SDS011;4768;42.664;23.240;2022-09-27T05:13:52;0.77;;;0.77;;
9459;SDS011;4768;42.664;23.240;2022-09-27T05:16:19;0.83;;;0.83;;
9459;SDS011;4768;42.664;23.240;2022-09-27T05:18:47;1.60;;;1.07;;
9459;SDS011;4768;42.664;23.240;2022-09-27T05:21:14;0.73;;;0.73;;
9459;SDS011;4768;42.664;23.240;2022-09-27T05:23:41;0.93;;;0.53;;
9459;SDS011;4768;42.664;23.240;2022-09-27T05:26:07;0.27;;;0.27;;
9459;SDS011;4768;42.664;23.240;2022-09-27T05:28:34;0.33;;;0.20;;
9459;SDS011;4768;42.664;23.240;2022-09-27T05:31:01;0.30;;;0.27;;
9459;SDS011;4768;42.664;23.240;2022-09-27T05:33:28;0.30;;;0.30;;
9459;SDS011;4768;42.664;23.240;2022-09-27T05:35:56;0.40;;;0.40;;
9459;SDS011;4768;42.664;23.240;2022-09-27T05:38:23;0.40;;;0.20;;
9459;SDS011;4768;42.664;23.240;2022-09-27T05:40:50;0.50;;;0.50;;
9459;SDS011;4768;42.664;23.240;2022-09-27T05:43:17;1.00;;;0.77;;
9459;SDS011;4768;42.664;23.240;2022-09-27T05:45:45;0.50;;;0.50;;
9459;SDS011;4768;42.664;23.240;2022-09-27T05:48:12;0.50;;;0.50;;
9459;SDS011;4768;42.664;23.240;2022-09-27T05:50:39;0.40;;;0.40;;
9459;SDS011;4768;42.664;23.240;2022-09-27T05:53:08;0.30;;;0.23;;
9459;SDS011;4768;42.664;23.240;2022-09-27T05:55:35;0.73;;;0.60;;
9459;SDS011;4768;42.664;23.240;2022-09-27T05:58:02;0.37;;;0.37;;
9459;SDS011;4768;42.664;23.240;2022-09-27T06:00:30;0.10;;;0.10;;
9459;SDS011;4768;42.664;23.240;2022-09-27T06:02:57;0.37;;;0.20;;
9459;SDS011;4768;42.664;23.240;2022-09-27T06:05:26;0.87;;;0.50;;
9459;SDS011;4768;42.664;23.240;2022-09-27T06:07:57;1.40;;;0.30;;
9459;SDS011;4768;42.664;23.240;2022-09-27T06:10:26;1.07;;;0.63;;
9459;SDS011;4768;42.664;23.240;2022-09-27T06:12:57;0.40;;;0.40;;
9459;SDS011;4768;42.664;23.240;2022-09-27T06:15:25;0.60;;;0.60;;
9459;SDS011;4768;42.664;23.240;2022-09-27T06:17:52;3.43;;;1.47;;
9459;SDS011;4768;42.664;23.240;2022-09-27T06:20:19;0.97;;;0.77;;
9459;SDS011;4768;42.664;23.240;2022-09-27T06:22:46;1.73;;;1.10;;
9459;SDS011;4768;42.664;23.240;2022-09-27T06:25:13;1.80;;;0.67;;
9459;SDS011;4768;42.664;23.240;2022-09-27T06:27:41;1.40;;;0.53;;
9459;SDS011;4768;42.664;23.240;2022-09-27T06:30:08;0.73;;;0.73;;
9459;SDS011;4768;42.664;23.240;2022-09-27T06:32:36;0.40;;;0.40;;
9459;SDS011;4768;42.664;23.240;2022-09-27T06:35:04;0.53;;;0.53;;
9459;SDS011;4768;42.664;23.240;2022-09-27T06:37:31;0.20;;;0.20;;
9459;SDS011;4768;42.664;23.240;2022-09-27T06:39:58;0.50;;;0.50;;
9459;SDS011;4768;42.664;23.240;2022-09-27T06:42:26;0.90;;;0.60;;
9459;SDS011;4768;42.664;23.240;2022-09-27T06:44:55;0.47;;;0.47;;
9459;SDS011;4768;42.664;23.240;2022-09-27T06:47:21;0.43;;;0.43;;
9459;SDS011;4768;42.664;23.240;2022-09-27T06:49:50;0.40;;;0.40;;
9459;SDS011;4768;42.664;23.240;2022-09-27T06:52:16;0.10;;;0.10;;
9459;SDS011;4768;42.664;23.240;2022-09-27T06:54:43;1.53;;;1.03;;
9459;SDS011;4768;42.664;23.240;2022-09-27T06:57:10;0.20;;;0.20;;
9459;SDS011;4768;42.664;23.240;2022-09-27T06:59:59;0.47;;;0.10;;
9459;SDS011;4768;42.664;23.240;2022-09-27T07:02:44;0.30;;;0.30;;
9459;SDS011;4768;42.664;23.240;2022-09-27T07:05:11;0.40;;;0.30;;
9459;SDS011;4768;42.664;23.240;2022-09-27T07:07:38;0.00;;;0.00;;
9459;SDS011;4768;42.664;23.240;2022-09-27T07:10:05;0.33;;;0.10;;
9459;SDS011;4768;42.664;23.240;2022-09-27T07:12:33;0.17;;;0.10;;
9459;SDS011;4768;42.664;23.240;2022-09-27T07:15:03;0.30;;;0.30;;
9459;SDS011;4768;42.664;23.240;2022-09-27T07:17:31;0.30;;;0.20;;
9459;SDS011;4768;42.664;23.240;2022-09-27T07:20:00;0.20;;;0.20;;
9459;SDS011;4768;42.664;23.240;2022-09-27T07:22:27;0.83;;;0.50;;
9459;SDS011;4768;42.664;23.240;2022-09-27T07:24:55;0.50;;;0.33;;
9459;SDS011;4768;42.664;23.240;2022-09-27T07:27:22;0.53;;;0.50;;
9459;SDS011;4768;42.664;23.240;2022-09-27T07:29:50;2.73;;;0.83;;
9459;SDS011;4768;42.664;23.240;2022-09-27T07:32:18;1.17;;;1.07;;
9459;SDS011;4768;42.664;23.240;2022-09-27T07:34:45;1.27;;;1.17;;
9459;SDS011;4768;42.664;23.240;2022-09-27T07:37:12;0.63;;;0.63;;
9459;SDS011;4768;42.664;23.240;2022-09-27T07:39:39;1.50;;;1.03;;
9459;SDS011;4768;42.664;23.240;2022-09-27T07:42:06;0.93;;;0.73;;
9459;SDS011;4768;42.664;23.240;2022-09-27T07:44:33;2.40;;;1.00;;
9459;SDS011;4768;42.664;23.240;2022-09-27T07:46:59;2.03;;;0.90;;
9459;SDS011;4768;42.664;23.240;2022-09-27T07:49:28;0.93;;;0.77;;
9459;SDS011;4768;42.664;23.240;2022-09-27T07:51:54;1.53;;;1.23;;
9459;SDS011;4768;42.664;23.240;2022-09-27T07:54:21;0.70;;;0.70;;
9459;SDS011;4768;42.664;23.240;2022-09-27T07:56:48;1.30;;;0.80;;
9459;SDS011;4768;42.664;23.240;2022-09-27T07:59:15;1.40;;;1.30;;
9459;SDS011;4768;42.664;23.240;2022-09-27T08:01:41;0.30;;;0.30;;
9459;SDS011;4768;42.664;23.240;2022-09-27T08:04:10;0.63;;;0.63;;
9459;SDS011;4768;42.664;23.240;2022-09-27T08:06:38;0.50;;;0.50;;
9459;SDS011;4768;42.664;23.240;2022-09-27T08:09:06;0.67;;;0.53;;
9459;SDS011;4768;42.664;23.240;2022-09-27T08:11:33;0.97;;;0.97;;
9459;SDS011;4768;42.664;23.240;2022-09-27T08:14:01;0.50;;;0.50;;
9459;SDS011;4768;42.664;23.240;2022-09-27T08:16:29;0.60;;;0.60;;
9459;SDS011;4768;42.664;23.240;2022-09-27T08:18:58;0.77;;;0.67;;
9459;SDS011;4768;42.664;23.240;2022-09-27T08:21:25;0.33;;;0.33;;
9459;SDS011;4768;42.664;23.240;2022-09-27T08:23:53;1.70;;;0.77;;
9459;SDS011;4768;42.664;23.240;2022-09-27T08:26:20;1.63;;;1.03;;
9459;SDS011;4768;42.664;23.240;2022-09-27T08:28:47;2.50;;;1.53;;
9459;SDS011;4768;42.664;23.240;2022-09-27T08:31:13;0.70;;;0.43;;
9459;SDS011;4768;42.664;23.240;2022-09-27T08:33:40;0.43;;;0.43;;
9459;SDS011;4768;42.664;23.240;2022-09-27T08:36:09;2.77;;;0.90;;
9459;SDS011;4768;42.664;23.240;2022-09-27T08:38:37;0.93;;;0.87;;
9459;SDS011;4768;42.664;23.240;2022-09-27T08:41:06;0.73;;;0.73;;
9459;SDS011;4768;42.664;23.240;2022-09-27T08:43:40;2.10;;;0.50;;
9459;SDS011;4768;42.664;23.240;2022-09-27T08:46:17;1.20;;;1.10;;
9459;SDS011;4768;42.664;23.240;2022-09-27T08:48:52;0.33;;;0.33;;
9459;SDS011;4768;42.664;23.240;2022-09-27T08:51:25;0.70;;;0.70;;
9459;SDS011;4768;42.664;23.240;2022-09-27T08:53:56;1.17;;;0.67;;
9459;SDS011;4768;42.664;23.240;2022-09-27T08:56:29;0.73;;;0.57;;
9459;SDS011;4768;42.664;23.240;2022-09-27T08:58:57;1.13;;;1.00;;
9459;SDS011;4768;42.664;23.240;2022-09-27T09:01:31;0.73;;;0.50;;
9459;SDS011;4768;42.664;23.240;2022-09-27T09:03:59;1.67;;;0.30;;
9459;SDS011;4768;42.664;23.240;2022-09-27T09:06:31;0.60;;;0.60;;
9459;SDS011;4768;42.664;23.240;2022-09-27T09:09:09;1.00;;;0.83;;
9459;SDS011;4768;42.664;23.240;2022-09-27T09:11:49;0.37;;;0.37;;
9459;SDS011;4768;42.664;23.240;2022-09-27T09:14:50;1.17;;;1.07;;
9459;SDS011;4768;42.664;23.240;2022-09-27T09:17:31;1.67;;;1.20;;
9459;SDS011;4768;42.664;23.240;2022-09-27T09:20:15;2.00;;;1.13;;
9459;SDS011;4768;42.664;23.240;2022-09-27T09:22:52;1.03;;;0.77;;
9459;SDS011;4768;42.664;23.240;2022-09-27T09:25:34;1.90;;;0.90;;
9459;SDS011;4768;42.664;23.240;2022-09-27T09:28:16;0.37;;;0.37;;
9459;SDS011;4768;42.664;23.240;2022-09-27T09:30:57;0.57;;;0.57;;
9459;SDS011;4768;42.664;23.240;2022-09-27T09:33:34;0.93;;;0.93;;
9459;SDS011;4768;42.664;23.240;2022-09-27T09:36:08;0.80;;;0.77;;
9459;SDS011;4768;42.664;23.240;2022-09-27T09:38:39;1.20;;;1.10;;
9459;SDS011;4768;42.664;23.240;2022-09-27T09:41:11;2.40;;;0.97;;
9459;SDS011;4768;42.664;23.240;2022-09-27T09:43:46;0.80;;;0.80;;
9459;SDS011;4768;42.664;23.240;2022-09-27T09:46:18;0.87;;;0.67;;
9459;SDS011;4768;42.664;23.240;2022-09-27T09:48:50;1.53;;;1.00;;
9459;SDS011;4768;42.664;23.240;2022-09-27T09:51:25;6.00;;;0.70;;
9459;SDS011;4768;42.664;23.240;2022-09-27T09:53:55;0.40;;;0.40;;
9459;SDS011;4768;42.664;23.240;2022-09-27T09:56:26;0.13;;;0.13;;
9459;SDS011;4768;42.664;23.240;2022-09-27T09:58:59;0.60;;;0.60;;
9459;SDS011;4768;42.664;23.240;2022-09-27T10:01:28;0.87;;;0.57;;
9459;SDS011;4768;42.664;23.240;2022-09-27T10:04:01;0.33;;;0.33;;
9459;SDS011;4768;42.664;23.240;2022-09-27T10:06:27;1.33;;;0.50;;
9459;SDS011;4768;42.664;23.240;2022-09-27T10:08:56;0.70;;;0.53;;
9459;SDS011;4768;42.664;23.240;2022-09-27T10:11:24;0.30;;;0.17;;
9459;SDS011;4768;42.664;23.240;2022-09-27T10:13:53;0.17;;;0.17;;
9459;SDS011;4768;42.664;23.240;2022-09-27T10:16:22;0.10;;;0.10;;
9459;SDS011;4768;42.664;23.240;2022-09-27T10:18:54;0.60;;;0.60;;
9459;SDS011;4768;42.664;23.240;2022-09-27T10:21:27;0.50;;;0.50;;
9459;SDS011;4768;42.664;23.240;2022-09-27T10:24:01;0.70;;;0.40;;
9459;SDS011;4768;42.664;23.240;2022-09-27T10:26:30;0.83;;;0.80;;
9459;SDS011;4768;42.664;23.240;2022-09-27T10:28:58;0.67;;;0.30;;
9459;SDS011;4768;42.664;23.240;2022-09-27T10:31:43;0.30;;;0.17;;
9459;SDS011;4768;42.664;23.240;2022-09-27T10:34:16;2.83;;;0.83;;
9459;SDS011;4768;42.664;23.240;2022-09-27T10:36:46;0.47;;;0.47;;
9459;SDS011;4768;42.664;23.240;2022-09-27T10:39:29;0.77;;;0.67;;
9459;SDS011;4768;42.664;23.240;2022-09-27T10:41:56;0.40;;;0.40;;
9459;SDS011;4768;42.664;23.240;2022-09-27T10:44:24;0.60;;;0.40;;
9459;SDS011;4768;42.664;23.240;2022-09-27T10:46:53;0.37;;;0.37;;
9459;SDS011;4768;42.664;23.240;2022-09-27T10:49:23;0.77;;;0.47;;
9459;SDS011;4768;42.664;23.240;2022-09-27T10:51:53;0.73;;;0.70;;
9459;SDS011;4768;42.664;23.240;2022-09-27T10:54:23;0.60;;;0.60;;
9459;SDS011;4768;42.664;23.240;2022-09-27T10:56:53;0.47;;;0.47;;
9459;SDS011;4768;42.664;23.240;2022-09-27T10:59:22;1.00;;;0.90;;
9459;SDS011;4768;42.664;23.240;2022-09-27T11:01:49;1.13;;;1.07;;
9459;SDS011;4768;42.664;23.240;2022-09-27T11:04:22;2.67;;;1.87;;
9459;SDS011;4768;42.664;23.240;2022-09-27T11:06:51;1.23;;;1.17;;
9459;SDS011;4768;42.664;23.240;2022-09-27T11:09:42;3.10;;;1.47;;
9459;SDS011;4768;42.664;23.240;2022-09-27T11:12:11;1.43;;;1.30;;
9459;SDS011;4768;42.664;23.240;2022-09-27T11:14:39;0.70;;;0.70;;
9459;SDS011;4768;42.664;23.240;2022-09-27T11:17:07;1.90;;;1.73;;
9459;SDS011;4768;42.664;23.240;2022-09-27T11:19:45;0.70;;;0.70;;
9459;SDS011;4768;42.664;23.240;2022-09-27T11:22:27;1.90;;;0.90;;
9459;SDS011;4768;42.664;23.240;2022-09-27T11:25:11;2.23;;;1.27;;
9459;SDS011;4768;42.664;23.240;2022-09-27T11:27:46;0.37;;;0.33;;
9459;SDS011;4768;42.664;23.240;2022-09-27T11:30:22;1.43;;;0.80;;
9459;SDS011;4768;42.664;23.240;2022-09-27T11:35:57;1.83;;;0.50;;
9459;SDS011;4768;42.664;23.240;2022-09-27T11:38:30;1.67;;;1.10;;
9459;SDS011;4768;42.664;23.240;2022-09-27T11:41:07;0.73;;;0.30;;
9459;SDS011;4768;42.664;23.240;2022-09-27T11:46:37;0.20;;;0.20;;
9459;SDS011;4768;42.664;23.240;2022-09-27T11:52:12;0.20;;;0.20;;
9459;SDS011;4768;42.664;23.240;2022-09-27T11:54:54;0.30;;;0.30;;
9459;SDS011;4768;42.664;23.240;2022-09-27T11:57:35;0.93;;;0.93;;
9459;SDS011;4768;42.664;23.240;2022-09-27T12:00:08;0.33;;;0.33;;
9459;SDS011;4768;42.664;23.240;2022-09-27T12:02:52;0.10;;;0.10;;
9459;SDS011;4768;42.664;23.240;2022-09-27T12:05:31;0.10;;;0.10;;
9459;SDS011;4768;42.664;23.240;2022-09-27T12:08:10;0.23;;;0.17;;
9459;SDS011;4768;42.664;23.240;2022-09-27T12:10:49;0.33;;;0.33;;
9459;SDS011;4768;42.664;23.240;2022-09-27T12:13:22;0.15;;;0.15;;
9459;SDS011;4768;42.664;23.240;2022-09-27T12:15:59;0.13;;;0.10;;
9459;SDS011;4768;42.664;23.240;2022-09-27T12:18:28;0.57;;;0.50;;
9459;SDS011;4768;42.664;23.240;2022-09-27T12:20:58;0.15;;;0.15;;
9459;SDS011;4768;42.664;23.240;2022-09-27T12:23:32;0.20;;;0.20;;
9459;SDS011;4768;42.664;23.240;2022-09-27T12:26:05;0.98;;;0.32;;
9459;SDS011;4768;42.664;23.240;2022-09-27T12:28:37;0.57;;;0.30;;
9459;SDS011;4768;42.664;23.240;2022-09-27T12:31:13;0.20;;;0.10;;
9459;SDS011;4768;42.664;23.240;2022-09-27T12:33:43;1.13;;;0.13;;
9459;SDS011;4768;42.664;23.240;2022-09-27T12:36:17;0.30;;;0.30;;
9459;SDS011;4768;42.664;23.240;2022-09-27T12:38:52;0.00;;;0.00;;
9459;SDS011;4768;42.664;23.240;2022-09-27T12:41:26;0.10;;;0.10;;
9459;SDS011;4768;42.664;23.240;2022-09-27T12:43:59;0.33;;;0.30;;
9459;SDS011;4768;42.664;23.240;2022-09-27T12:46:28;0.43;;;0.20;;
9459;SDS011;4768;42.664;23.240;2022-09-27T12:49:02;0.57;;;0.47;;
9459;SDS011;4768;42.664;23.240;2022-09-27T12:51:35;0.10;;;0.10;;
9459;SDS011;4768;42.664;23.240;2022-09-27T12:54:13;0.45;;;0.45;;
9459;SDS011;4768;42.664;23.240;2022-09-27T12:57:07;0.13;;;0.13;;
9459;SDS011;4768;42.664;23.240;2022-09-27T12:59:49;2.00;;;1.90;;
9459;SDS011;4768;42.664;23.240;2022-09-27T13:05:34;2.77;;;2.23;;
9459;SDS011;4768;42.664;23.240;2022-09-27T13:08:17;3.73;;;2.33;;
9459;SDS011;4768;42.664;23.240;2022-09-27T13:10:57;3.45;;;2.20;;
9459;SDS011;4768;42.664;23.240;2022-09-27T13:13:32;5.43;;;2.57;;
9459;SDS011;4768;42.664;23.240;2022-09-27T13:16:01;2.60;;;2.17;;
9459;SDS011;4768;42.664;23.240;2022-09-27T13:18:31;4.33;;;2.93;;
9459;SDS011;4768;42.664;23.240;2022-09-27T13:24:29;2.63;;;2.10;;
9459;SDS011;4768;42.664;23.240;2022-09-27T13:36:24;2.57;;;1.87;;
9459;SDS011;4768;42.664;23.240;2022-09-27T13:41:58;3.40;;;1.63;;
9459;SDS011;4768;42.664;23.240;2022-09-27T13:44:33;1.50;;;1.40;;
9459;SDS011;4768;42.664;23.240;2022-09-27T13:47:13;1.33;;;1.23;;
9459;SDS011;4768;42.664;23.240;2022-09-27T13:49:53;1.10;;;1.00;;
9459;SDS011;4768;42.664;23.240;2022-09-27T13:52:24;2.77;;;1.07;;
9459;SDS011;4768;42.664;23.240;2022-09-27T13:54:58;7.10;;;1.77;;
9459;SDS011;4768;42.664;23.240;2022-09-27T13:57:37;1.10;;;1.10;;
9459;SDS011;4768;42.664;23.240;2022-09-27T14:00:09;2.03;;;1.00;;
9459;SDS011;4768;42.664;23.240;2022-09-27T14:02:38;2.80;;;1.07;;
9459;SDS011;4768;42.664;23.240;2022-09-27T14:05:19;1.53;;;1.10;;
9459;SDS011;4768;42.664;23.240;2022-09-27T14:07:50;1.27;;;1.20;;
9459;SDS011;4768;42.664;23.240;2022-09-27T14:10:19;0.90;;;0.90;;
9459;SDS011;4768;42.664;23.240;2022-09-27T14:12:49;1.70;;;1.17;;
9459;SDS011;4768;42.664;23.240;2022-09-27T14:15:19;1.37;;;1.20;;
9459;SDS011;4768;42.664;23.240;2022-09-27T14:17:49;1.00;;;1.00;;
9459;SDS011;4768;42.664;23.240;2022-09-27T14:20:29;0.80;;;0.80;;
9459;SDS011;4768;42.664;23.240;2022-09-27T14:23:00;1.13;;;1.10;;
9459;SDS011;4768;42.664;23.240;2022-09-27T14:25:28;7.23;;;1.10;;
9459;SDS011;4768;42.664;23.240;2022-09-27T14:27:55;1.60;;;0.90;;
9459;SDS011;4768;42.664;23.240;2022-09-27T14:30:24;3.17;;;1.00;;
9459;SDS011;4768;42.664;23.240;2022-09-27T14:32:53;1.30;;;1.20;;
9459;SDS011;4768;42.664;23.240;2022-09-27T14:35:22;1.57;;;1.47;;
9459;SDS011;4768;42.664;23.240;2022-09-27T14:38:10;0.97;;;0.90;;
9459;SDS011;4768;42.664;23.240;2022-09-27T14:40:40;3.07;;;1.07;;
9459;SDS011;4768;42.664;23.240;2022-09-27T14:43:12;0.97;;;0.90;;
9459;SDS011;4768;42.664;23.240;2022-09-27T14:45:42;1.40;;;1.00;;
9459;SDS011;4768;42.664;23.240;2022-09-27T14:48:18;1.60;;;1.10;;
9459;SDS011;4768;42.664;23.240;2022-09-27T14:50:54;1.10;;;1.10;;
9459;SDS011;4768;42.664;23.240;2022-09-27T14:53:27;1.10;;;1.00;;
9459;SDS011;4768;42.664;23.240;2022-09-27T14:55:55;4.13;;;1.00;;
9459;SDS011;4768;42.664;23.240;2022-09-27T14:58:23;1.13;;;1.03;;
9459;SDS011;4768;42.664;23.240;2022-09-27T15:00:51;0.90;;;0.90;;
9459;SDS011;4768;42.664;23.240;2022-09-27T15:03:20;0.90;;;0.90;;
9459;SDS011;4768;42.664;23.240;2022-09-27T15:05:50;4.27;;;1.43;;
9459;SDS011;4768;42.664;23.240;2022-09-27T15:08:19;0.00;;;0.00;;
9459;SDS011;4768;42.664;23.240;2022-09-27T15:10:50;0.57;;;0.37;;
9459;SDS011;4768;42.664;23.240;2022-09-27T15:13:18;0.00;;;0.00;;
9459;SDS011;4768;42.664;23.240;2022-09-27T15:15:46;0.00;;;0.00;;
9459;SDS011;4768;42.664;23.240;2022-09-27T15:18:30;0.00;;;0.00;;
9459;SDS011;4768;42.664;23.240;2022-09-27T15:21:05;0.00;;;0.00;;
9459;SDS011;4768;42.664;23.240;2022-09-27T15:23:35;0.10;;;0.10;;
9459;SDS011;4768;42.664;23.240;2022-09-27T15:26:06;0.00;;;0.00;;
9459;SDS011;4768;42.664;23.240;2022-09-27T15:28:36;0.73;;;0.40;;
9459;SDS011;4768;42.664;23.240;2022-09-27T15:31:08;0.13;;;0.10;;
9459;SDS011;4768;42.664;23.240;2022-09-27T15:33:35;0.00;;;0.00;;
9459;SDS011;4768;42.664;23.240;2022-09-27T15:36:03;0.00;;;0.00;;
9459;SDS011;4768;42.664;23.240;2022-09-27T15:38:32;0.00;;;0.00;;
9459;SDS011;4768;42.664;23.240;2022-09-27T15:41:02;0.00;;;0.00;;
9459;SDS011;4768;42.664;23.240;2022-09-27T15:43:39;0.00;;;0.00;;
9459;SDS011;4768;42.664;23.240;2022-09-27T15:46:32;0.23;;;0.20;;
9459;SDS011;4768;42.664;23.240;2022-09-27T15:49:21;0.20;;;0.20;;
9459;SDS011;4768;42.664;23.240;2022-09-27T15:51:58;0.00;;;0.00;;
9459;SDS011;4768;42.664;23.240;2022-09-27T15:54:26;0.57;;;0.57;;
9459;SDS011;4768;42.664;23.240;2022-09-27T15:56:56;0.00;;;0.00;;
9459;SDS011;4768;42.664;23.240;2022-09-27T15:59:29;0.00;;;0.00;;
9459;SDS011;4768;42.664;23.240;2022-09-27T16:02:01;0.00;;;0.00;;
9459;SDS011;4768;42.664;23.240;2022-09-27T16:04:30;1.17;;;0.40;;
9459;SDS011;4768;42.664;23.240;2022-09-27T16:06:57;0.00;;;0.00;;
9459;SDS011;4768;42.664;23.240;2022-09-27T16:09:28;0.00;;;0.00;;
9459;SDS011;4768;42.664;23.240;2022-09-27T16:11:57;0.00;;;0.00;;